Time;durP1;ratioP1;P1;durP2;ratioP2;P2;SDS_P1;SDS_P2;PMS_P1;PMS_P2;Temp;Humidity;BMP_temperature;BMP_pressure;BME280_temperature;BME280_humidity;BME280_pressure;Samples;Min_cycle;Max_cycle;Signal;HPM_P1;HPM_P2
2023/08/26 00:01:28;;;;;;;9.50;2.40;;;;;;;21.78;81.36;99670.52;109953;1279;22317;-59
2023/08/26 00:03:59;;;;;;;6.90;2.30;;;;;;;21.75;81.19;99677.45;109972;1274;22142;-59
2023/08/26 00:06:30;;;;;;;6.90;2.20;;;;;;;21.73;81.15;99681.20;109969;1274;22307;-59
2023/08/26 00:09:01;;;;;;;10.10;2.70;;;;;;;21.71;81.09;99674.77;109939;1267;22435;-59
2023/08/26 00:11:31;;;;;;;10.00;2.80;;;;;;;21.70;81.17;99672.83;109948;1273;22186;-59
2023/08/26 00:14:02;;;;;;;7.70;2.00;;;;;;;21.70;81.19;99670.65;109963;1273;22204;-59
2023/08/26 00:16:33;;;;;;;10.50;2.50;;;;;;;21.68;81.14;99670.95;109970;1268;22209;-59
2023/08/26 00:19:05;;;;;;;9.40;2.10;;;;;;;21.67;81.18;99676.05;109975;1264;22269;-59
2023/08/26 00:21:37;;;;;;;8.00;2.30;;;;;;;21.63;81.31;99674.55;109933;1279;22331;-59
2023/08/26 00:24:09;;;;;;;10.00;2.40;;;;;;;21.60;81.37;99677.99;109964;1274;22199;-59
2023/08/26 00:26:39;;;;;;;12.00;2.50;;;;;;;21.57;81.43;99684.29;109934;1264;22945;-59
2023/08/26 00:29:11;;;;;;;10.70;2.30;;;;;;;21.53;81.54;99685.61;109968;1267;22178;-59
2023/08/26 00:31:41;;;;;;;10.00;2.90;;;;;;;21.48;81.64;99690.55;109938;1279;22201;-59
2023/08/26 00:34:12;;;;;;;13.00;2.90;;;;;;;21.41;81.80;99685.35;109999;1279;23010;-59
2023/08/26 00:36:43;;;;;;;11.60;2.90;;;;;;;21.37;81.77;99688.30;109972;1272;22129;-59
2023/08/26 00:39:14;;;;;;;8.50;2.80;;;;;;;21.32;81.96;99682.05;109959;1267;22212;-59
2023/08/26 00:41:45;;;;;;;7.90;2.40;;;;;;;21.28;82.11;99685.50;109951;1279;22221;-59
2023/08/26 00:44:15;;;;;;;12.10;3.10;;;;;;;21.23;82.18;99687.73;109945;1279;22851;-59
2023/08/26 00:46:47;;;;;;;8.60;2.60;;;;;;;21.21;82.19;99690.52;109947;1274;22325;-59
2023/08/26 00:49:19;;;;;;;9.70;3.10;;;;;;;21.19;82.12;99693.55;109958;1269;22331;-59
2023/08/26 00:51:50;;;;;;;9.50;2.90;;;;;;;21.15;82.21;99688.23;109927;1273;23227;-59
2023/08/26 00:54:21;;;;;;;11.60;2.80;;;;;;;21.10;82.45;99689.86;109936;1272;23910;-59
2023/08/26 00:56:52;;;;;;;9.70;2.80;;;;;;;21.03;82.59;99684.41;109963;1280;22853;-59
2023/08/26 00:59:23;;;;;;;9.00;2.40;;;;;;;21.00;82.55;99682.90;109940;1270;22438;-59
2023/08/26 01:01:55;;;;;;;9.50;3.10;;;;;;;20.92;82.55;99682.98;109975;1280;23013;-59
2023/08/26 01:04:26;;;;;;;9.10;2.80;;;;;;;20.84;82.77;99689.17;110012;1279;22276;-59
2023/08/26 01:06:56;;;;;;;10.20;2.80;;;;;;;20.77;82.85;99688.52;109956;1280;22165;-59
2023/08/26 01:09:28;;;;;;;10.30;2.50;;;;;;;20.70;82.89;99690.58;109972;1277;22147;-59
2023/08/26 01:12:08;;;;;;;9.20;2.30;;;;;;;20.67;82.82;99689.70;109971;1280;22356;-59
2023/08/26 01:14:43;;;;;;;9.30;2.30;;;;;;;20.64;82.89;99688.98;109990;1276;22184;-59
2023/08/26 01:17:16;;;;;;;5.70;2.10;;;;;;;20.59;82.97;99689.59;109978;1273;22160;-59
2023/08/26 01:19:47;;;;;;;9.50;2.40;;;;;;;20.57;82.98;99693.92;109969;1272;22222;-59
2023/08/26 01:22:24;;;;;;;7.50;2.00;;;;;;;20.57;83.12;99691.55;109969;1279;22178;-59
2023/08/26 01:24:56;;;;;;;10.90;3.50;;;;;;;20.55;83.10;99692.56;109952;1274;22227;-59
2023/08/26 01:27:26;;;;;;;10.40;3.10;;;;;;;20.52;83.25;99692.95;110000;1279;22200;-59
2023/08/26 01:29:57;;;;;;;8.30;3.30;;;;;;;20.50;83.24;99694.05;109989;1273;22143;-59
2023/08/26 01:32:36;;;;;;;11.30;3.30;;;;;;;20.43;83.30;99694.70;110003;1280;22219;-59
2023/08/26 01:35:12;;;;;;;7.30;2.50;;;;;;;20.36;83.57;99697.14;109969;1273;23044;-59
2023/08/26 01:37:46;;;;;;;8.80;2.80;;;;;;;20.28;83.84;99701.70;109981;1279;22176;-59
2023/08/26 01:40:18;;;;;;;10.70;3.00;;;;;;;20.11;83.53;99701.84;109974;1280;22320;-59
2023/08/26 01:42:51;;;;;;;14.30;2.70;;;;;;;19.99;83.59;99710.42;110006;1280;22293;-59
2023/08/26 01:45:22;;;;;;;10.90;2.40;;;;;;;19.86;83.68;99717.63;109992;1280;22211;-59
2023/08/26 01:47:53;;;;;;;9.70;3.10;;;;;;;19.73;83.99;99719.02;109965;1274;22331;-59
2023/08/26 01:50:24;;;;;;;11.50;3.10;;;;;;;19.64;84.32;99717.77;109967;1273;22174;-59
2023/08/26 01:52:56;;;;;;;13.40;3.20;;;;;;;19.61;84.53;99718.20;109982;1280;22323;-59
2023/08/26 01:55:26;;;;;;;10.50;2.60;;;;;;;19.63;84.55;99716.19;110003;1273;22202;-59
2023/08/26 01:57:57;;;;;;;10.80;2.70;;;;;;;19.64;84.68;99709.31;110029;1273;22522;-59
2023/08/26 02:00:28;;;;;;;13.50;2.80;;;;;;;19.63;84.75;99698.70;109986;1280;22180;-59
2023/08/26 02:02:59;;;;;;;8.30;2.80;;;;;;;19.59;84.79;99699.05;110027;1280;22287;-59
2023/08/26 02:05:30;;;;;;;11.00;2.80;;;;;;;19.55;84.83;99689.00;109938;1280;22196;-59
2023/08/26 02:08:01;;;;;;;10.50;3.30;;;;;;;19.54;85.14;99692.18;109960;1280;22221;-59
2023/08/26 02:10:32;;;;;;;11.80;2.70;;;;;;;19.52;85.22;99693.52;109959;1279;22958;-59
2023/08/26 02:13:03;;;;;;;9.30;2.60;;;;;;;19.50;85.60;99692.81;109987;1279;22190;-59
2023/08/26 02:15:37;;;;;;;11.60;3.80;;;;;;;19.48;85.71;99696.02;109999;1279;23337;-59
2023/08/26 02:18:08;;;;;;;8.70;2.80;;;;;;;19.46;85.78;99700.22;110007;1279;22441;-59
2023/08/26 02:20:43;;;;;;;11.80;4.00;;;;;;;19.45;85.83;99701.83;109987;1274;22223;-59
2023/08/26 02:23:14;;;;;;;15.60;4.70;;;;;;;19.44;86.07;99700.93;110028;1274;22287;-59
2023/08/26 02:25:45;;;;;;;12.60;4.00;;;;;;;19.43;86.27;99699.48;110000;1279;22237;-59
2023/08/26 02:28:15;;;;;;;11.10;3.10;;;;;;;19.43;86.44;99698.77;109978;1279;23041;-59
2023/08/26 02:30:46;;;;;;;10.10;3.20;;;;;;;19.40;86.67;99696.84;110017;1274;22215;-59
2023/08/26 02:33:17;;;;;;;8.50;2.80;;;;;;;19.37;86.88;99696.90;110005;1280;22818;-59
2023/08/26 02:35:51;;;;;;;10.40;3.30;;;;;;;19.31;86.99;99700.60;109994;1273;22220;-59
2023/08/26 02:38:21;;;;;;;8.10;2.80;;;;;;;19.28;87.01;99702.53;110008;1279;22649;-59
2023/08/26 02:40:56;;;;;;;11.70;2.60;;;;;;;19.27;86.91;99701.54;110003;1279;22128;-59
2023/08/26 02:43:27;;;;;;;9.10;2.50;;;;;;;19.26;86.95;99704.55;109988;1280;22903;-59
2023/08/26 02:45:58;;;;;;;9.60;2.90;;;;;;;19.27;87.22;99704.77;109986;1279;22218;-59
2023/08/26 02:48:30;;;;;;;16.30;3.50;;;;;;;19.28;87.22;99708.68;109990;1279;23394;-57
2023/08/26 02:51:02;;;;;;;16.50;3.20;;;;;;;19.29;87.47;99708.83;109994;1273;22388;-59
2023/08/26 02:53:33;;;;;;;14.20;3.30;;;;;;;19.30;87.55;99712.02;109973;1280;22196;-60
2023/08/26 02:56:04;;;;;;;10.10;2.90;;;;;;;19.29;87.79;99709.14;110001;1279;23229;-59
2023/08/26 02:58:35;;;;;;;10.70;2.90;;;;;;;19.29;87.97;99711.21;109983;1279;22273;-59
2023/08/26 03:01:06;;;;;;;12.70;3.00;;;;;;;19.28;88.18;99713.44;110020;1279;22298;-59
2023/08/26 03:03:37;;;;;;;10.50;3.20;;;;;;;19.27;88.11;99714.45;110035;1274;22811;-59
2023/08/26 03:06:08;;;;;;;12.70;2.80;;;;;;;19.28;88.24;99716.11;109995;1279;22328;-59
2023/08/26 03:08:39;;;;;;;11.30;3.10;;;;;;;19.27;88.24;99716.59;110012;1280;22238;-59
2023/08/26 03:11:10;;;;;;;10.20;2.60;;;;;;;19.26;88.30;99714.77;109970;1280;22114;-59
2023/08/26 03:13:41;;;;;;;9.60;3.20;;;;;;;19.26;88.31;99708.21;110006;1280;22135;-59
2023/08/26 03:16:13;;;;;;;8.90;2.60;;;;;;;19.24;88.29;99701.25;109960;1279;22264;-59
2023/08/26 03:18:44;;;;;;;13.20;3.80;;;;;;;19.23;88.25;99706.95;109982;1280;22194;-59
2023/08/26 03:21:15;;;;;;;9.90;3.00;;;;;;;19.20;88.31;99713.24;109981;1280;22394;-59
2023/08/26 03:23:46;;;;;;;11.80;3.40;;;;;;;19.16;88.44;99712.83;109974;1274;22237;-59
2023/08/26 03:26:17;;;;;;;9.40;2.40;;;;;;;19.14;88.41;99708.82;109996;1279;22344;-59
2023/08/26 03:28:48;;;;;;;16.80;3.40;;;;;;;19.13;88.35;99705.29;109990;1279;22369;-59
2023/08/26 03:31:18;;;;;;;7.20;2.20;;;;;;;19.11;88.34;99707.34;109981;1274;23315;-59
2023/08/26 03:33:49;;;;;;;12.70;3.00;;;;;;;19.08;88.39;99706.48;110031;1279;22372;-59
2023/08/26 03:36:20;;;;;;;9.50;3.10;;;;;;;19.06;88.48;99709.15;109986;1279;22182;-59
2023/08/26 03:38:51;;;;;;;13.40;3.20;;;;;;;19.03;88.61;99716.37;110004;1280;22353;-59
2023/08/26 03:41:22;;;;;;;9.90;2.90;;;;;;;19.01;88.64;99712.61;109972;1267;22200;-59
2023/08/26 03:43:53;;;;;;;9.50;2.70;;;;;;;19.02;88.65;99705.14;110002;1257;22880;-59
2023/08/26 03:46:24;;;;;;;11.60;3.10;;;;;;;19.02;88.82;99703.38;109958;1279;22368;-59
2023/08/26 03:48:55;;;;;;;10.10;3.00;;;;;;;19.02;88.80;99702.50;110006;1277;22212;-59
2023/08/26 03:51:26;;;;;;;9.60;3.10;;;;;;;19.03;88.94;99700.86;109978;1273;22378;-58
2023/08/26 03:53:57;;;;;;;8.30;2.90;;;;;;;19.03;89.06;99702.85;109993;1279;22167;-59
2023/08/26 03:56:28;;;;;;;11.50;2.80;;;;;;;19.02;89.01;99704.73;109992;1279;22216;-59
2023/08/26 03:58:59;;;;;;;9.90;2.60;;;;;;;19.01;89.02;99704.30;109983;1279;22442;-59
2023/08/26 04:01:31;;;;;;;12.20;2.90;;;;;;;19.00;89.10;99708.42;109988;1279;22305;-59
2023/08/26 04:04:02;;;;;;;8.90;3.00;;;;;;;19.00;89.17;99709.61;109986;1273;22191;-59
2023/08/26 04:06:33;;;;;;;13.50;3.20;;;;;;;18.99;89.33;99712.47;109988;1274;22198;-58
2023/08/26 04:09:04;;;;;;;11.90;3.00;;;;;;;18.97;89.36;99713.89;109945;1274;22343;-59
2023/08/26 04:11:36;;;;;;;11.00;3.00;;;;;;;18.96;89.40;99712.17;109958;1279;22979;-59
2023/08/26 04:14:06;;;;;;;11.20;2.80;;;;;;;18.95;89.47;99718.42;109974;1274;22265;-59
2023/08/26 04:16:37;;;;;;;13.60;2.70;;;;;;;18.94;89.58;99721.27;109983;1279;22185;-59
2023/08/26 04:19:08;;;;;;;8.70;2.30;;;;;;;18.93;89.73;99725.00;110007;1279;22432;-59
2023/08/26 04:21:39;;;;;;;9.60;2.40;;;;;;;18.94;89.64;99727.77;110003;1271;22300;-59
2023/08/26 04:24:10;;;;;;;12.40;4.10;;;;;;;18.95;89.75;99726.35;109984;1279;22232;-59
2023/08/26 04:26:41;;;;;;;10.40;2.90;;;;;;;18.94;89.85;99732.22;110019;1279;22183;-59
2023/08/26 04:29:12;;;;;;;10.70;3.10;;;;;;;18.93;89.93;99736.88;109986;1279;22398;-59
2023/08/26 04:31:43;;;;;;;11.00;3.00;;;;;;;18.91;89.76;99738.22;109996;1264;22335;-60
2023/08/26 04:34:14;;;;;;;11.00;2.50;;;;;;;18.85;89.58;99735.47;110013;1271;23021;-59
2023/08/26 04:36:45;;;;;;;11.10;2.80;;;;;;;18.81;89.63;99730.26;110006;1271;22136;-59
2023/08/26 04:39:19;;;;;;;8.50;2.20;;;;;;;18.82;89.84;99731.33;110023;1279;22408;-59
2023/08/26 04:41:50;;;;;;;11.30;2.50;;;;;;;18.83;90.13;99730.89;110014;1272;22219;-59
2023/08/26 04:44:21;;;;;;;11.60;2.70;;;;;;;18.82;90.35;99739.28;109981;1272;23370;-58
2023/08/26 04:46:53;;;;;;;11.50;3.60;;;;;;;18.79;90.70;99734.01;109977;1279;22862;-59
2023/08/26 04:49:24;;;;;;;10.10;3.00;;;;;;;18.74;90.83;99733.75;109976;1271;22216;-59
2023/08/26 04:51:55;;;;;;;10.50;2.80;;;;;;;18.76;90.99;99731.45;110006;1279;22194;-59
2023/08/26 04:54:26;;;;;;;10.30;2.80;;;;;;;18.82;91.12;99726.84;109967;1275;22306;-58
2023/08/26 04:56:57;;;;;;;9.60;2.70;;;;;;;18.90;91.37;99724.18;110007;1280;22194;-59
2023/08/26 04:59:28;;;;;;;12.40;3.10;;;;;;;18.97;91.53;99734.94;109976;1273;23258;-59
2023/08/26 05:01:59;;;;;;;10.20;2.80;;;;;;;19.03;91.77;99744.20;109954;1274;22347;-58
2023/08/26 05:04:30;;;;;;;10.50;3.40;;;;;;;19.08;92.14;99743.83;109951;1280;23607;-59
2023/08/26 05:07:00;;;;;;;8.30;2.70;;;;;;;19.11;92.01;99743.19;110018;1277;22388;-58
2023/08/26 05:09:32;;;;;;;8.10;2.10;;;;;;;19.19;92.17;99741.46;110012;1278;23068;-59
2023/08/26 05:12:03;;;;;;;12.60;3.00;;;;;;;19.28;92.47;99736.45;110027;1272;22358;-58
2023/08/26 05:14:34;;;;;;;9.80;2.70;;;;;;;19.38;92.78;99733.72;110015;1271;22339;-59
2023/08/26 05:17:05;;;;;;;12.90;2.90;;;;;;;19.49;92.79;99733.50;110038;1270;22326;-59
2023/08/26 05:19:37;;;;;;;9.90;2.10;;;;;;;19.59;92.66;99735.92;109992;1277;22423;-59
2023/08/26 05:22:11;;;;;;;8.00;1.80;;;;;;;19.68;92.66;99731.29;109986;1274;22153;-59
2023/08/26 05:24:42;;;;;;;13.40;3.20;;;;;;;19.81;92.70;99732.25;109943;1274;22313;-59
2023/08/26 05:27:15;;;;;;;9.80;2.70;;;;;;;19.93;93.23;99732.08;109993;1274;22169;-59
2023/08/26 05:29:46;;;;;;;8.60;2.30;;;;;;;20.05;93.41;99733.55;109966;1274;22191;-59
2023/08/26 05:32:17;;;;;;;7.60;1.80;;;;;;;20.18;93.17;99738.51;109979;1272;23187;-59
2023/08/26 05:34:47;;;;;;;11.70;1.90;;;;;;;20.29;92.50;99742.31;110038;1274;22415;-59
2023/08/26 05:37:18;;;;;;;7.60;2.20;;;;;;;20.39;92.16;99744.16;110013;1280;23252;-59
2023/08/26 05:39:49;;;;;;;9.90;1.90;;;;;;;20.50;92.10;99744.27;110014;1272;22351;-58
2023/08/26 05:42:20;;;;;;;15.20;3.70;;;;;;;20.59;91.78;99742.55;110000;1279;22313;-61
2023/08/26 05:44:51;;;;;;;7.10;1.60;;;;;;;20.70;91.87;99746.44;109962;1276;22341;-61
2023/08/26 05:47:22;;;;;;;6.80;1.80;;;;;;;20.82;91.75;99746.43;109981;1279;22149;-62
2023/08/26 05:49:53;;;;;;;8.60;2.00;;;;;;;20.94;91.57;99749.16;110001;1279;23121;-61
2023/08/26 05:52:24;;;;;;;6.40;1.60;;;;;;;21.03;91.27;99748.20;110024;1273;22156;-62
2023/08/26 05:54:55;;;;;;;10.90;2.20;;;;;;;21.12;90.98;99748.80;110043;1279;22355;-62
2023/08/26 05:57:25;;;;;;;9.60;2.50;;;;;;;21.20;90.98;99756.95;110032;1279;22903;-62
2023/08/26 05:59:57;;;;;;;7.30;1.80;;;;;;;21.25;90.94;99766.95;109940;1271;22453;-63
2023/08/26 06:02:28;;;;;;;7.60;2.20;;;;;;;21.32;91.17;99769.98;110000;1272;22343;-60
2023/08/26 06:04:59;;;;;;;9.80;2.60;;;;;;;21.40;90.97;99764.85;110029;1274;22906;-61
2023/08/26 06:07:30;;;;;;;9.20;2.40;;;;;;;21.48;90.72;99768.57;110013;1279;22247;-61
2023/08/26 06:10:01;;;;;;;7.80;1.90;;;;;;;21.55;90.59;99767.00;110042;1279;22186;-61
2023/08/26 06:12:32;;;;;;;10.60;2.60;;;;;;;21.62;90.73;99771.13;110005;1280;22218;-61
2023/08/26 06:15:02;;;;;;;8.00;2.00;;;;;;;21.70;90.60;99772.88;110049;1279;22150;-61
2023/08/26 06:17:34;;;;;;;9.80;2.20;;;;;;;21.80;90.45;99779.52;109993;1273;22329;-61
2023/08/26 06:20:06;;;;;;;6.60;2.20;;;;;;;21.90;90.24;99783.05;110044;1280;23636;-61
2023/08/26 06:22:37;;;;;;;5.90;1.80;;;;;;;21.99;90.07;99792.14;110065;1279;22151;-61
2023/08/26 06:25:09;;;;;;;7.20;1.70;;;;;;;22.07;89.88;99791.84;110026;1274;23311;-61
2023/08/26 06:27:40;;;;;;;8.10;2.10;;;;;;;22.18;90.24;99796.35;110030;1279;22138;-61
2023/08/26 06:30:12;;;;;;;9.20;2.30;;;;;;;22.29;90.15;99799.17;110041;1279;22871;-60
2023/08/26 06:32:44;;;;;;;8.80;1.60;;;;;;;22.41;89.85;99804.19;110023;1276;22998;-61
2023/08/26 06:35:15;;;;;;;7.90;1.50;;;;;;;22.52;89.42;99812.05;110011;1280;22266;-61
2023/08/26 06:37:46;;;;;;;4.60;1.40;;;;;;;22.63;89.35;99818.02;110014;1274;23228;-61
2023/08/26 06:40:17;;;;;;;7.30;1.40;;;;;;;22.78;89.09;99823.37;109992;1271;22314;-61
2023/08/26 06:42:48;;;;;;;5.40;1.10;;;;;;;22.91;88.87;99821.90;110040;1274;22174;-60
2023/08/26 06:45:19;;;;;;;6.10;1.30;;;;;;;23.05;88.63;99826.13;110035;1279;22205;-61
2023/08/26 06:47:50;;;;;;;6.90;1.50;;;;;;;23.16;88.05;99822.59;109989;1273;22229;-61
2023/08/26 06:50:21;;;;;;;4.70;1.30;;;;;;;23.25;87.54;99818.86;110008;1279;22192;-61
2023/08/26 06:52:52;;;;;;;7.30;1.30;;;;;;;23.34;86.85;99820.89;110043;1264;22314;-61
2023/08/26 06:55:23;;;;;;;5.40;1.40;;;;;;;23.41;86.97;99820.05;110017;1280;23335;-60
2023/08/26 06:57:54;;;;;;;6.50;1.30;;;;;;;23.48;86.82;99819.30;110003;1279;22346;-61
2023/08/26 07:00:26;;;;;;;6.30;1.40;;;;;;;23.54;86.66;99815.72;110010;1279;22202;-61
2023/08/26 07:02:58;;;;;;;5.20;1.40;;;;;;;23.61;86.43;99814.34;110032;1280;22260;-60
2023/08/26 07:05:29;;;;;;;4.40;1.30;;;;;;;23.68;85.50;99818.52;109953;1280;23030;-61
2023/08/26 07:07:59;;;;;;;9.30;1.60;;;;;;;23.73;84.54;99818.24;110004;1280;22833;-61
2023/08/26 07:10:30;;;;;;;6.50;1.40;;;;;;;23.80;84.52;99815.54;110022;1276;22148;-60
2023/08/26 07:13:01;;;;;;;4.30;1.20;;;;;;;23.86;84.15;99812.19;110010;1280;23180;-61
2023/08/26 07:15:32;;;;;;;5.80;1.00;;;;;;;23.93;84.12;99813.23;110049;1279;22256;-61
2023/08/26 07:18:04;;;;;;;8.20;1.40;;;;;;;24.00;83.63;99807.78;110010;1279;22425;-61
2023/08/26 07:20:34;;;;;;;4.70;1.20;;;;;;;24.08;83.21;99805.74;109964;1272;22846;-61
2023/08/26 07:23:06;;;;;;;9.60;1.10;;;;;;;24.13;82.60;99801.91;110033;1279;22168;-61
2023/08/26 07:25:37;;;;;;;6.30;1.30;;;;;;;24.18;82.54;99806.34;110014;1274;22180;-61
2023/08/26 07:28:08;;;;;;;6.50;1.20;;;;;;;24.23;82.20;99799.76;110026;1277;22189;-61
2023/08/26 07:30:40;;;;;;;7.00;1.30;;;;;;;24.27;81.59;99799.52;110002;1279;22435;-61
2023/08/26 07:33:11;;;;;;;5.40;1.30;;;;;;;24.31;81.26;99800.52;110004;1280;22145;-61
2023/08/26 07:35:42;;;;;;;4.90;1.20;;;;;;;24.35;81.12;99800.86;109940;1273;22530;-61
2023/08/26 07:38:13;;;;;;;6.40;1.80;;;;;;;24.39;81.01;99805.48;109978;1277;22187;-61
2023/08/26 07:40:44;;;;;;;6.50;1.00;;;;;;;24.43;80.50;99808.98;109999;1280;23100;-61
2023/08/26 07:43:15;;;;;;;4.90;1.30;;;;;;;24.49;80.34;99817.05;110002;1274;23124;-61
2023/08/26 07:45:47;;;;;;;8.20;1.40;;;;;;;24.54;79.97;99819.23;109975;1280;22378;-60
2023/08/26 07:48:17;;;;;;;4.90;1.20;;;;;;;24.57;79.45;99825.05;110023;1279;23101;-61
2023/08/26 07:50:48;;;;;;;7.30;1.30;;;;;;;24.62;79.52;99828.47;109992;1277;22302;-61
2023/08/26 07:53:19;;;;;;;7.80;1.40;;;;;;;24.68;79.14;99828.55;109993;1273;22331;-61
2023/08/26 07:55:50;;;;;;;6.40;1.60;;;;;;;24.76;78.84;99836.09;109962;1279;23345;-61
2023/08/26 07:58:21;;;;;;;8.30;1.70;;;;;;;24.85;78.41;99840.11;110014;1279;22217;-61
2023/08/26 08:00:52;;;;;;;4.50;1.10;;;;;;;24.95;78.63;99844.80;110003;1279;22205;-61
2023/08/26 08:03:23;;;;;;;4.70;1.10;;;;;;;25.05;78.09;99848.30;109989;1280;22269;-61
2023/08/26 08:05:54;;;;;;;9.80;1.20;;;;;;;25.13;77.46;99850.21;109993;1280;22269;-61
2023/08/26 08:08:25;;;;;;;5.20;1.30;;;;;;;25.19;77.00;99850.98;109979;1279;22238;-61
2023/08/26 08:10:55;;;;;;;6.60;1.30;;;;;;;25.21;76.48;99849.92;109957;1276;22280;-60
2023/08/26 08:13:26;;;;;;;7.60;1.20;;;;;;;25.22;76.16;99850.44;110024;1279;22214;-60
2023/08/26 08:15:57;;;;;;;6.10;1.10;;;;;;;25.25;75.66;99855.09;109998;1274;22461;-60
2023/08/26 08:18:28;;;;;;;7.20;1.20;;;;;;;25.35;76.11;99861.32;110006;1279;22161;-60
2023/08/26 08:20:59;;;;;;;6.70;1.20;;;;;;;25.47;75.89;99867.02;109976;1279;22224;-62
2023/08/26 08:23:30;;;;;;;4.00;1.20;;;;;;;25.56;75.37;99869.23;109971;1280;23066;-62
2023/08/26 08:26:01;;;;;;;7.70;1.60;;;;;;;25.64;74.90;99876.42;109997;1279;22202;-62
2023/08/26 08:28:32;;;;;;;6.40;1.10;;;;;;;25.71;74.69;99876.22;109985;1273;22177;-62
2023/08/26 08:31:03;;;;;;;7.30;1.60;;;;;;;25.79;74.41;99872.73;109954;1273;22184;-60
2023/08/26 08:33:34;;;;;;;5.30;1.40;;;;;;;25.85;73.67;99879.20;109999;1275;22180;-62
2023/08/26 08:36:07;;;;;;;4.00;1.20;;;;;;;25.85;73.12;99885.11;109998;1272;22899;-62
2023/08/26 08:38:38;;;;;;;6.50;1.10;;;;;;;25.84;72.80;99879.72;110040;1273;22238;-62
2023/08/26 08:41:09;;;;;;;6.00;1.20;;;;;;;25.86;72.93;99876.98;109961;1280;22187;-63
2023/08/26 08:43:44;;;;;;;5.40;1.10;;;;;;;25.88;72.83;99882.48;110005;1279;22336;-63
2023/08/26 08:46:17;;;;;;;4.60;1.30;;;;;;;25.90;72.02;99884.23;110036;1278;22884;-62
2023/08/26 08:48:48;;;;;;;6.40;1.20;;;;;;;25.92;71.50;99887.54;110017;1275;22412;-60
2023/08/26 08:51:21;;;;;;;7.80;1.30;;;;;;;25.97;71.35;99879.65;109855;1272;22425;-61
2023/08/26 08:53:54;;;;;;;7.20;1.60;;;;;;;26.05;71.13;99870.85;109975;1274;22185;-61
2023/08/26 08:56:26;;;;;;;2.70;0.90;;;;;;;26.10;70.24;99873.80;109983;1276;23536;-63
2023/08/26 08:58:58;;;;;;;4.90;1.30;;;;;;;26.13;70.03;99871.20;109989;1276;22173;-61
2023/08/26 09:01:31;;;;;;;4.80;1.20;;;;;;;26.18;70.08;99867.69;109980;1276;22213;-61
2023/08/26 09:04:02;;;;;;;8.30;1.60;;;;;;;26.22;69.21;99867.04;109970;1279;22420;-61
2023/08/26 09:06:34;;;;;;;5.50;1.50;;;;;;;26.26;69.35;99858.08;110013;1277;22197;-61
2023/08/26 09:09:10;;;;;;;9.80;1.50;;;;;;;26.33;69.75;99859.19;109969;1274;22213;-61
2023/08/26 09:11:41;;;;;;;4.60;1.20;;;;;;;26.37;68.94;99848.63;109975;1279;22196;-61
2023/08/26 09:14:12;;;;;;;5.20;1.50;;;;;;;26.40;69.28;99851.30;109993;1280;22157;-61
2023/08/26 09:16:44;;;;;;;5.60;1.50;;;;;;;26.41;68.67;99858.39;109938;1276;22166;-61
2023/08/26 09:19:16;;;;;;;7.40;1.60;;;;;;;26.42;68.39;99853.99;109977;1279;22223;-62
2023/08/26 09:21:47;;;;;;;6.50;1.20;;;;;;;26.46;68.61;99843.99;109976;1280;22411;-61
2023/08/26 09:24:19;;;;;;;6.20;1.60;;;;;;;26.51;68.42;99844.64;106494;1279;24444;-61
2023/08/26 09:27:00;;;;;;;5.50;1.50;;;;;;;26.56;67.86;99848.30;105727;1278;24266;-61
2023/08/26 09:29:33;;;;;;;7.80;1.60;;;;;;;26.63;68.12;99849.60;110019;1280;22963;-61
2023/08/26 09:32:06;;;;;;;8.00;1.70;;;;;;;26.68;67.44;99847.52;109998;1274;22154;-63
2023/08/26 09:34:37;;;;;;;6.10;1.70;;;;;;;26.69;67.85;99833.87;109997;1276;22374;-63
2023/08/26 09:37:09;;;;;;;10.00;1.90;;;;;;;26.74;67.83;99840.41;109992;1271;23038;-63
2023/08/26 09:39:48;;;;;;;8.20;1.90;;;;;;;26.70;67.05;99839.79;110024;1272;22322;-63
2023/08/26 09:42:19;;;;;;;9.00;2.10;;;;;;;26.63;67.62;99832.23;110004;1280;22349;-63
2023/08/26 09:44:50;;;;;;;6.80;2.00;;;;;;;26.66;66.92;99828.89;110021;1280;22184;-62
2023/08/26 09:47:21;;;;;;;9.20;2.60;;;;;;;26.72;66.46;99811.88;110000;1279;22214;-62
2023/08/26 09:49:52;;;;;;;6.70;2.50;;;;;;;26.79;66.44;99807.14;110000;1270;22194;-63
2023/08/26 09:52:24;;;;;;;6.70;2.40;;;;;;;26.89;65.83;99811.90;109986;1273;22977;-63
2023/08/26 09:54:57;;;;;;;7.80;2.40;;;;;;;26.96;65.26;99810.14;110056;1280;22394;-63
2023/08/26 09:57:28;;;;;;;5.90;2.00;;;;;;;27.00;64.77;99809.17;110019;1276;22282;-62
2023/08/26 09:59:59;;;;;;;6.30;2.30;;;;;;;27.05;65.15;99806.05;110025;1276;22177;-61
2023/08/26 10:02:33;;;;;;;8.40;2.20;;;;;;;27.08;64.52;99800.27;109998;1277;22341;-62
2023/08/26 10:05:14;;;;;;;6.40;2.20;;;;;;;27.12;64.24;99796.83;110011;1279;22234;-61
2023/08/26 10:07:47;;;;;;;10.20;2.50;;;;;;;27.11;63.89;99793.20;110033;1276;22384;-62
2023/08/26 10:10:32;;;;;;;7.50;2.30;;;;;;;27.11;64.17;99787.17;109995;1276;22185;-62
2023/08/26 10:13:06;;;;;;;7.60;2.90;;;;;;;27.12;63.79;99784.13;108224;1270;22556;-61
2023/08/26 10:15:37;;;;;;;5.90;2.20;;;;;;;27.11;63.07;99773.80;110018;1271;22178;-61
2023/08/26 10:18:15;;;;;;;5.70;2.20;;;;;;;27.13;63.11;99773.12;109947;1273;22360;-61
2023/08/26 10:20:48;;;;;;;8.00;2.10;;;;;;;27.15;63.01;99768.25;110026;1271;22443;-61
2023/08/26 10:23:20;;;;;;;6.50;1.90;;;;;;;27.14;62.91;99761.29;110007;1274;22326;-61
2023/08/26 10:25:51;;;;;;;8.90;2.30;;;;;;;27.15;62.65;99761.25;109999;1273;22999;-61
2023/08/26 10:28:23;;;;;;;5.60;1.80;;;;;;;27.16;62.15;99762.52;109994;1273;22175;-61
2023/08/26 10:30:55;;;;;;;5.70;1.70;;;;;;;27.20;62.21;99766.80;109975;1277;22353;-61
2023/08/26 10:33:28;;;;;;;5.60;1.70;;;;;;;27.27;61.95;99769.52;110033;1279;22406;-61
2023/08/26 10:36:15;;;;;;;5.10;1.70;;;;;;;27.28;61.17;99771.81;110014;1279;22328;-61
2023/08/26 10:38:57;;;;;;;8.80;1.90;;;;;;;27.25;61.31;99767.41;110000;1271;22238;-61
2023/08/26 10:41:29;;;;;;;5.30;1.90;;;;;;;27.18;61.11;99765.92;109984;1270;23109;-61
2023/08/26 10:44:03;;;;;;;5.50;1.60;;;;;;;27.17;60.97;99762.39;110090;1279;22240;-61
2023/08/26 10:46:37;;;;;;;6.30;1.70;;;;;;;27.13;60.30;99762.39;109977;1272;23005;-61
2023/08/26 10:49:13;;;;;;;6.40;1.50;;;;;;;27.10;60.28;99766.88;109989;1279;22212;-60
2023/08/26 10:51:46;;;;;;;7.40;1.70;;;;;;;27.10;60.56;99778.23;109959;1273;22166;-60
2023/08/26 10:54:30;;;;;;;5.90;1.40;;;;;;;27.16;60.57;99785.12;109987;1276;23195;-61
2023/08/26 10:57:07;;;;;;;5.80;1.80;;;;;;;27.26;60.92;99775.64;110011;1273;22411;-60
2023/08/26 10:59:40;;;;;;;6.50;1.70;;;;;;;27.35;60.95;99777.27;110033;1279;22168;-60
2023/08/26 11:02:12;;;;;;;6.00;1.60;;;;;;;27.41;60.75;99784.36;110021;1279;22175;-60
2023/08/26 11:04:46;;;;;;;4.70;1.50;;;;;;;27.48;60.32;99799.04;109982;1278;22426;-60
2023/08/26 11:07:18;;;;;;;8.30;1.60;;;;;;;27.52;60.55;99803.92;109977;1276;22404;-61
2023/08/26 11:09:50;;;;;;;7.60;1.70;;;;;;;27.55;60.07;99808.30;109971;1273;23078;-61
2023/08/26 11:12:28;;;;;;;5.50;1.50;;;;;;;27.53;59.11;99820.89;109953;1271;23171;-60
2023/08/26 11:15:07;;;;;;;8.50;2.30;;;;;;;27.44;58.99;99829.19;109965;1273;22314;-60
2023/08/26 11:17:38;;;;;;;6.00;1.60;;;;;;;27.40;59.21;99838.88;110000;1273;22171;-60
2023/08/26 11:20:11;;;;;;;5.20;1.40;;;;;;;27.35;59.38;99842.93;109932;1274;22542;-59
2023/08/26 11:22:43;;;;;;;10.90;1.80;;;;;;;27.28;59.30;99846.30;109830;1279;196168;-60
2023/08/26 11:25:17;;;;;;;5.00;1.50;;;;;;;27.20;59.82;99845.42;109987;1275;22329;-61
2023/08/26 11:27:48;;;;;;;7.30;1.80;;;;;;;27.16;60.55;99835.84;109948;1272;22148;-61
2023/08/26 11:30:20;;;;;;;6.20;2.10;;;;;;;27.09;60.18;99833.52;109954;1273;22364;-61
2023/08/26 11:32:52;;;;;;;7.20;1.70;;;;;;;27.04;59.98;99828.34;109986;1273;22323;-61
2023/08/26 11:35:26;;;;;;;5.70;1.40;;;;;;;26.97;59.97;99829.56;109983;1279;22367;-61
2023/08/26 11:37:57;;;;;;;7.70;2.30;;;;;;;26.87;60.03;99829.81;109960;1276;22342;-61
2023/08/26 11:40:28;;;;;;;11.30;2.10;;;;;;;26.77;59.91;99831.49;109915;1273;23104;-60
2023/08/26 11:42:59;;;;;;;11.90;2.20;;;;;;;26.64;61.02;99832.77;109995;1279;22250;-61